Map

Track Data

SID SEASON NUMBER BASIN SUBBASIN NAME ISO_TIME NATURE LAT LON WMO_WIND WMO_PRES WMO_AGENCY TRACK_TYPE DIST2LAND LANDFALL IFLAG USA_AGENCY USA_ATCF_ID USA_LAT USA_LON USA_RECORD USA_STATUS USA_WIND USA_PRES USA_SSHS USA_R34_NE USA_R34_SE USA_R34_SW USA_R34_NW USA_R50_NE USA_R50_SE USA_R50_SW USA_R50_NW USA_R64_NE USA_R64_SE USA_R64_SW USA_R64_NW USA_POCI USA_ROCI USA_RMW USA_EYE TOKYO_LAT TOKYO_LON TOKYO_GRADE TOKYO_WIND TOKYO_PRES TOKYO_R50_DIR TOKYO_R50_LONG TOKYO_R50_SHORT TOKYO_R30_DIR TOKYO_R30_LONG TOKYO_R30_SHORT TOKYO_LAND CMA_LAT CMA_LON CMA_CAT CMA_WIND CMA_PRES HKO_LAT HKO_LON HKO_CAT HKO_WIND HKO_PRES NEWDELHI_LAT NEWDELHI_LON NEWDELHI_GRADE NEWDELHI_WIND NEWDELHI_PRES NEWDELHI_CI NEWDELHI_DP NEWDELHI_POCI REUNION_LAT REUNION_LON REUNION_TYPE REUNION_WIND REUNION_PRES REUNION_TNUM REUNION_CI REUNION_RMW REUNION_R34_NE REUNION_R34_SE REUNION_R34_SW REUNION_R34_NW REUNION_R50_NE REUNION_R50_SE REUNION_R50_SW REUNION_R50_NW REUNION_R64_NE REUNION_R64_SE REUNION_R64_SW REUNION_R64_NW BOM_LAT BOM_LON BOM_TYPE BOM_WIND BOM_PRES BOM_TNUM BOM_CI BOM_RMW BOM_R34_NE BOM_R34_SE BOM_R34_SW BOM_R34_NW BOM_R50_NE BOM_R50_SE BOM_R50_SW BOM_R50_NW BOM_R64_NE BOM_R64_SE BOM_R64_SW BOM_R64_NW BOM_ROCI BOM_POCI BOM_EYE BOM_POS_METHOD BOM_PRES_METHOD NADI_LAT NADI_LON NADI_CAT NADI_WIND NADI_PRES WELLINGTON_LAT WELLINGTON_LON WELLINGTON_WIND WELLINGTON_PRES DS824_LAT DS824_LON DS824_STAGE DS824_WIND DS824_PRES TD9636_LAT TD9636_LON TD9636_STAGE TD9636_WIND TD9636_PRES TD9635_LAT TD9635_LON TD9635_WIND TD9635_PRES TD9635_ROCI NEUMANN_LAT NEUMANN_LON NEUMANN_CLASS NEUMANN_WIND NEUMANN_PRES MLC_LAT MLC_LON MLC_CLASS MLC_WIND MLC_PRES USA_GUST BOM_GUST BOM_GUST_PER REUNION_GUST REUNION_GUST_PER USA_SEAHGT USA_SEARAD_NE USA_SEARAD_SE USA_SEARAD_SW USA_SEARAD_NW STORM_SPEED STORM_DIR
1974197N29285 1974 61 NA NA NOT_NAMED 1974-07-16 00:00:00 SS 29.0000 -75.0000 25 hurdat_atl main 527 527 O_____________ hurdat_atl AL051974 29.0000 -75.0000 SD 25 -2 13 19
1974197N29285 1974 61 NA NA NOT_NAMED 1974-07-16 03:00:00 SS 29.6151 -74.7655 main 566 527 P_____________ AL051974 29.6151 -74.7655 SD 27 -2 13 20
1974197N29285 1974 61 NA NA NOT_NAMED 1974-07-16 06:00:00 SS 30.2000 -74.5000 30 hurdat_atl main 527 495 O_____________ hurdat_atl AL051974 30.2000 -74.5000 SD 30 -2 12 24
1974197N29285 1974 61 NA NA NOT_NAMED 1974-07-16 09:00:00 SS 30.7299 -74.1797 main 495 464 P_____________ AL051974 30.7299 -74.1797 SD 30 -2 12 31
1974197N29285 1974 61 NA NA NOT_NAMED 1974-07-16 12:00:00 SS 31.2000 -73.8000 30 hurdat_atl main 464 447 O_____________ hurdat_atl AL051974 31.2000 -73.8000 SD 30 -2 11 38
1974197N29285 1974 61 NA NA NOT_NAMED 1974-07-16 15:00:00 SS 31.6073 -73.3793 main 449 442 P_____________ AL051974 31.6073 -73.3793 SD 30 -2 11 44
1974197N29285 1974 61 NA NA NOT_NAMED 1974-07-16 18:00:00 SS 32.0000 -72.9000 30 hurdat_atl main 449 448 O_____________ hurdat_atl AL051974 32.0000 -72.9000 SD 30 -2 12 46
1974197N29285 1974 61 NA NA NOT_NAMED 1974-07-16 21:00:00 SS 32.4349 -72.3720 main 455 455 P_____________ AL051974 32.4349 -72.3720 SD 30 -2 13 46
1974197N29285 1974 61 NA NA NOT_NAMED 1974-07-17 00:00:00 SS 32.9000 -71.8000 30 hurdat_atl main 467 466 O_____________ hurdat_atl AL051974 32.9000 -71.8000 SD 30 -2 13 45
1974197N29285 1974 61 NA NA NOT_NAMED 1974-07-17 03:00:00 SS 33.3841 -71.2510 main 467 467 P_____________ AL051974 33.3841 -71.2510 SD 30 -2 14 45
1974197N29285 1974 61 NA NA NOT_NAMED 1974-07-17 06:00:00 SS 33.9000 -70.6000 30 hurdat_atl main 493 493 O_____________ hurdat_atl AL051974 33.9000 -70.6000 SD 30 -2 16 49
1974197N29285 1974 61 NA NA NOT_NAMED 1974-07-17 09:00:00 SS 34.4412 -69.8035 main 540 536 P_____________ AL051974 34.4412 -69.8035 SD 32 -2 18 53
1974197N29285 1974 61 NA NA NOT_NAMED 1974-07-17 12:00:00 SS 35.0000 -68.8000 35 hurdat_atl main 612 612 O_____________ hurdat_atl AL051974 35.0000 -68.8000 SS 35 -2 21 59
1974197N29285 1974 61 NA NA NOT_NAMED 1974-07-17 15:00:00 SS 35.5501 -67.5667 main 709 700 P_____________ AL051974 35.5501 -67.5667 SS 35 -2 24 63
1974197N29285 1974 61 NA NA NOT_NAMED 1974-07-17 18:00:00 SS 36.1000 -66.2000 35 hurdat_atl main 704 700 O_____________ hurdat_atl AL051974 36.1000 -66.2000 SS 35 -2 25 63
1974197N29285 1974 61 NA NA NOT_NAMED 1974-07-17 21:00:00 SS 36.6640 -64.8492 main 713 713 P_____________ AL051974 36.6640 -64.8492 SS 37 -2 24 63
1974197N29285 1974 61 NA NA NOT_NAMED 1974-07-18 00:00:00 SS 37.2000 -63.5000 40 hurdat_atl main 717 697 O_____________ hurdat_atl AL051974 37.2000 -63.5000 SS 40 -2 23 65
1974197N29285 1974 61 NA NA NOT_NAMED 1974-07-18 03:00:00 SS 37.6635 -62.1827 main 695 695 P_____________ AL051974 37.6635 -62.1827 SS 40 -2 22 66
1974197N29285 1974 61 NA NA NOT_NAMED 1974-07-18 06:00:00 SS 38.1000 -60.9000 40 hurdat_atl main 704 704 O_____________ hurdat_atl AL051974 38.1000 -60.9000 SS 40 -2 21 66
1974197N29285 1974 61 NA NA NOT_NAMED 1974-07-18 09:00:00 SS 38.5460 -59.7069 main 726 721 P_____________ AL051974 38.5460 -59.7069 SS 42 -2 21 65
1974197N29285 1974 61 NA NA NOT_NAMED 1974-07-18 12:00:00 SS 39.0000 -58.4000 45 1006 hurdat_atl main 724 717 O_____________ hurdat_atl AL051974 39.0000 -58.4000 SS 45 1006 -2 25 69
1974197N29285 1974 61 NA NA NOT_NAMED 1974-07-18 15:00:00 SS 39.4601 -56.7082 main 728 728 P_____________ AL051974 39.4601 -56.7082 SS 45 -2 28 71
1974197N29285 1974 61 NA NA NOT_NAMED 1974-07-18 18:00:00 SS 39.9000 -55.0000 45 hurdat_atl main 753 700 O_____________ hurdat_atl AL051974 39.9000 -55.0000 SS 45 -2 26 71
1974197N29285 1974 61 NA NA NOT_NAMED 1974-07-18 21:00:00 SS 40.2994 -53.5118 main 700 658 P_____________ AL051974 40.2994 -53.5118 SS 45 -2 21 68
1974197N29285 1974 61 NA NA NOT_NAMED 1974-07-19 00:00:00 SS 40.7000 -52.4000 45 hurdat_atl main 659 620 O_____________ hurdat_atl AL051974 40.7000 -52.4000 SS 45 -2 15 57
1974197N29285 1974 61 NA NA NOT_NAMED 1974-07-19 03:00:00 SS 41.1399 -51.8051 main 621 571 P_____________ AL051974 41.1399 -51.8051 SS 45 -2 11 37
1974197N29285 1974 61 NA NA NOT_NAMED 1974-07-19 06:00:00 SS 41.6000 -51.5000 45 hurdat_atl main 571 535 O_____________ hurdat_atl AL051974 41.6000 -51.5000 SS 45 -2 10 29
1974197N29285 1974 61 NA NA NOT_NAMED 1974-07-19 09:00:00 SS 42.0346 -51.1486 main 537 493 P_____________ AL051974 42.0346 -51.1486 SS 45 -2 10 30
1974197N29285 1974 61 NA NA NOT_NAMED 1974-07-19 12:00:00 SS 42.5000 -50.8000 45 hurdat_atl main 493 456 O_____________ hurdat_atl AL051974 42.5000 -50.8000 SS 45 -2 11 31
1974197N29285 1974 61 NA NA NOT_NAMED 1974-07-19 15:00:00 SS 43.0125 -50.3643 main 456 421 P_____________ AL051974 43.0125 -50.3643 SS 42 -2 13 31
1974197N29285 1974 61 NA NA NOT_NAMED 1974-07-19 18:00:00 SS 43.6000 -49.9000 40 hurdat_atl main 421 392 O_____________ hurdat_atl AL051974 43.6000 -49.9000 SS 40 -2 14 28
1974197N29285 1974 61 NA NA NOT_NAMED 1974-07-19 21:00:00 SS 44.2548 -49.4561 main 384 367 P_____________ AL051974 44.2548 -49.4561 SS 40 -2 15 25
1974197N29285 1974 61 NA NA NOT_NAMED 1974-07-20 00:00:00 ET 45.0000 -49.0000 40 hurdat_atl main 367 357 O_____________ hurdat_atl AL051974 45.0000 -49.0000 EX 40 -4 17 24
1974197N29285 1974 61 NA NA NOT_NAMED 1974-07-20 03:00:00 ET 45.7974 -48.5060 main 361 353 P_____________ AL051974 45.7974 -48.5060 EX 40 -4 18 22
1974197N29285 1974 61 NA NA NOT_NAMED 1974-07-20 06:00:00 ET 46.7000 -48.0000 40 hurdat_atl main 357 354 O_____________ hurdat_atl AL051974 46.7000 -48.0000 EX 40 -4 20 20
1974197N29285 1974 61 NA NA NOT_NAMED 1974-07-20 09:00:00 ET 47.7178 -47.5018 main 381 381 P_____________ AL051974 47.7178 -47.5018 EX 37 -4 22 18
1974197N29285 1974 61 NA NA NOT_NAMED 1974-07-20 12:00:00 ET 48.8000 -47.0000 35 hurdat_atl main 432 O_____________ hurdat_atl AL051974 48.8000 -47.0000 EX 35 -4 23 17

About IBTrACS Database

This database is a web-friendly format of International Best Track Archive for Climate Stewardship (IBTrACS), a global best track data archive curated by NOAA dating back to 1842.

Updated: 2021-12-03